Time;durP1;ratioP1;P1;durP2;ratioP2;P2;SDS_P1;SDS_P2;PMS_P1;PMS_P2;Temp;Humidity;BMP_temperature;BMP_pressure;BME280_temperature;BME280_humidity;BME280_pressure;Samples;Min_cycle;Max_cycle;Signal;HPM_P1;HPM_P2
2021/07/18 00:00:14;;;;;;;5.28;2.20;;;20.00;87.30;;;;;;4918119;29;20031;-80
2021/07/18 00:02:39;;;;;;;3.88;1.65;;;19.90;88.00;;;;;;4938371;29;20082;-81
2021/07/18 00:05:06;;;;;;;5.00;2.10;;;19.90;87.50;;;;;;4921334;29;20031;-81
2021/07/18 00:07:33;;;;;;;5.47;2.10;;;19.90;87.70;;;;;;4937803;29;20024;-81
2021/07/18 00:09:59;;;;;;;4.63;2.58;;;19.90;87.80;;;;;;4921222;29;20127;-82
2021/07/18 00:12:25;;;;;;;4.22;2.40;;;19.80;88.00;;;;;;4920559;29;20023;-81
2021/07/18 00:14:50;;;;;;;6.45;2.55;;;19.80;88.10;;;;;;4921047;29;20020;-81
2021/07/18 00:17:16;;;;;;;4.63;2.10;;;19.80;88.20;;;;;;4920468;29;20448;-80
2021/07/18 00:19:42;;;;;;;4.50;2.60;;;19.80;88.30;;;;;;4920996;29;20108;-81
2021/07/18 00:22:07;;;;;;;6.97;2.80;;;19.80;88.40;;;;;;4938214;29;20511;-81
2021/07/18 00:24:33;;;;;;;4.78;2.55;;;19.80;88.60;;;;;;4937630;29;20024;-81
2021/07/18 00:26:59;;;;;;;5.28;2.50;;;19.70;88.60;;;;;;4920940;29;20028;-81
2021/07/18 00:29:25;;;;;;;5.00;2.58;;;19.70;88.80;;;;;;4920336;29;20110;-81
2021/07/18 00:31:51;;;;;;;5.15;2.65;;;19.70;88.90;;;;;;4920672;29;20023;-81
2021/07/18 00:34:17;;;;;;;6.72;3.10;;;19.70;89.10;;;;;;4935977;29;20024;-81
2021/07/18 00:36:44;;;;;;;5.90;2.88;;;19.60;89.10;;;;;;4920686;29;20023;-82
2021/07/18 00:39:10;;;;;;;6.35;2.45;;;19.60;89.20;;;;;;4937878;29;20028;-81
2021/07/18 00:41:35;;;;;;;4.45;2.03;;;19.60;89.50;;;;;;4937131;29;20194;-81
2021/07/18 00:44:01;;;;;;;6.68;2.70;;;19.50;89.50;;;;;;4920595;29;20024;-81
2021/07/18 00:46:27;;;;;;;4.93;2.35;;;19.50;89.70;;;;;;4920187;29;20027;-81
2021/07/18 00:48:52;;;;;;;5.35;2.60;;;19.50;89.80;;;;;;4937709;29;20504;-82
2021/07/18 00:51:18;;;;;;;6.63;2.83;;;19.50;90.00;;;;;;4937022;29;20034;-81
2021/07/18 00:53:44;;;;;;;5.85;2.55;;;19.50;90.20;;;;;;4920530;29;20023;-80
2021/07/18 00:56:11;;;;;;;5.00;2.50;;;19.50;90.00;;;;;;4937508;29;20338;-82
2021/07/18 00:58:37;;;;;;;8.95;3.97;;;19.40;90.10;;;;;;4936873;29;20106;-81
2021/07/18 01:01:03;;;;;;;6.47;2.88;;;19.50;90.10;;;;;;4936075;29;20024;-81
2021/07/18 01:03:29;;;;;;;10.02;4.10;;;19.50;90.10;;;;;;4919622;29;20079;-82
2021/07/18 01:05:56;;;;;;;6.93;2.92;;;19.50;90.10;;;;;;4920334;29;20017;-81
2021/07/18 01:08:22;;;;;;;7.25;2.95;;;19.50;90.10;;;;;;4936872;29;20475;-80
2021/07/18 01:10:48;;;;;;;5.10;2.60;;;19.50;90.20;;;;;;4920124;29;20020;-81
2021/07/18 01:13:14;;;;;;;4.57;2.15;;;19.50;90.20;;;;;;4920156;29;20398;-80
2021/07/18 01:15:40;;;;;;;4.60;2.22;;;19.50;90.20;;;;;;4936491;29;20028;-80
2021/07/18 01:18:13;;;;;;;4.18;2.03;;;19.50;90.20;;;;;;4919970;29;20027;-81
2021/07/18 01:20:41;;;;;;;3.97;1.83;;;19.50;90.20;;;;;;4919371;29;20064;-81
2021/07/18 01:23:08;;;;;;;4.18;2.10;;;19.60;90.20;;;;;;4937067;29;20032;-80
2021/07/18 01:25:35;;;;;;;3.38;1.67;;;19.60;90.10;;;;;;4919285;29;20011;-80
2021/07/18 01:28:05;;;;;;;3.88;2.13;;;19.60;90.10;;;;;;4919704;29;20026;-80
2021/07/18 01:30:31;;;;;;;3.97;1.80;;;19.50;90.20;;;;;;4919134;29;20076;-80
2021/07/18 01:32:56;;;;;;;4.40;1.70;;;19.50;90.20;;;;;;4919754;29;20024;-81
2021/07/18 01:35:22;;;;;;;4.88;2.20;;;19.50;90.30;;;;;;4934988;29;20027;-80
2021/07/18 01:37:48;;;;;;;4.05;1.98;;;19.50;90.40;;;;;;4936718;29;20396;-81
2021/07/18 01:40:14;;;;;;;3.65;1.90;;;19.50;90.40;;;;;;4916329;29;20076;-81
2021/07/18 01:42:40;;;;;;;3.55;2.10;;;19.50;90.40;;;;;;4915809;29;20028;-81
2021/07/18 01:45:07;;;;;;;3.67;1.80;;;19.50;90.40;;;;;;4917738;29;20031;-81
2021/07/18 01:47:33;;;;;;;3.38;1.88;;;19.40;90.30;;;;;;4915890;29;20504;-81
2021/07/18 01:49:59;;;;;;;3.72;2.10;;;19.40;90.40;;;;;;4917684;29;20111;-82
2021/07/18 01:52:24;;;;;;;3.28;1.73;;;19.40;90.40;;;;;;4915803;29;20480;-81
2021/07/18 01:54:54;;;;;;;4.75;2.10;;;19.40;90.40;;;;;;4916246;29;20020;-81
2021/07/18 01:57:20;;;;;;;3.55;1.77;;;19.40;90.50;;;;;;4915846;29;20071;-80
2021/07/18 01:59:46;;;;;;;4.07;1.75;;;19.30;90.50;;;;;;4916235;29;20051;-81
2021/07/18 02:02:15;;;;;;;4.05;1.83;;;19.40;90.50;;;;;;4916214;29;20453;-81
2021/07/18 02:04:40;;;;;;;3.70;2.00;;;19.40;90.50;;;;;;4915420;29;20024;-82
2021/07/18 02:07:06;;;;;;;3.58;1.70;;;19.40;90.50;;;;;;4917410;29;20016;-81
2021/07/18 02:09:36;;;;;;;4.63;2.30;;;19.40;90.40;;;;;;4916774;29;20239;-81
2021/07/18 02:12:03;;;;;;;3.28;1.95;;;19.40;90.40;;;;;;4917429;29;20107;-81
2021/07/18 02:14:31;;;;;;;5.75;2.38;;;19.40;90.50;;;;;;4916495;29;20040;-81
2021/07/18 02:16:57;;;;;;;4.20;1.95;;;19.40;90.50;;;;;;4915891;29;20028;-81
2021/07/18 02:19:26;;;;;;;4.55;2.35;;;19.40;90.50;;;;;;4915213;29;20017;-81
2021/07/18 02:21:52;;;;;;;4.80;2.47;;;19.40;90.40;;;;;;4915746;29;20058;-81
2021/07/18 02:24:18;;;;;;;4.78;2.40;;;19.40;90.40;;;;;;4916866;29;20528;-81
2021/07/18 02:26:43;;;;;;;5.65;2.03;;;19.40;90.40;;;;;;4916116;29;20099;-81
2021/07/18 02:29:09;;;;;;;5.57;2.47;;;19.40;90.50;;;;;;4915598;29;20417;-81
2021/07/18 02:31:35;;;;;;;6.28;2.70;;;19.40;90.80;;;;;;4916280;29;20028;-81
2021/07/18 02:34:00;;;;;;;3.63;2.20;;;19.40;90.60;;;;;;4916820;29;20115;-81
2021/07/18 02:36:26;;;;;;;5.00;2.28;;;19.40;90.60;;;;;;4916301;29;20024;-82
2021/07/18 02:38:54;;;;;;;3.55;1.73;;;19.40;90.50;;;;;;4915600;29;20032;-81
2021/07/18 02:41:20;;;;;;;2.90;1.58;;;19.40;90.60;;;;;;4914922;29;20047;-82
2021/07/18 02:43:45;;;;;;;4.85;2.20;;;19.30;90.60;;;;;;4915819;29;20112;-82
2021/07/18 02:46:11;;;;;;;4.28;1.95;;;19.30;90.70;;;;;;4916658;29;20429;-81
2021/07/18 02:48:38;;;;;;;3.75;1.90;;;19.30;90.70;;;;;;4915999;29;20432;-81
2021/07/18 02:51:04;;;;;;;4.70;2.28;;;19.30;90.70;;;;;;4916750;29;20445;-81
2021/07/18 02:53:31;;;;;;;6.65;2.60;;;19.30;90.70;;;;;;4914623;29;20016;-81
2021/07/18 02:55:57;;;;;;;3.72;1.90;;;19.40;90.70;;;;;;4915354;29;20026;-81
2021/07/18 02:58:23;;;;;;;6.93;2.60;;;19.40;90.60;;;;;;4931051;29;20107;-81
2021/07/18 03:00:49;;;;;;;5.03;2.50;;;19.40;90.60;;;;;;4915148;29;20020;-81
2021/07/18 03:03:15;;;;;;;4.18;2.15;;;19.40;90.70;;;;;;4931005;29;20029;-81
2021/07/18 03:05:41;;;;;;;5.57;2.78;;;19.40;90.70;;;;;;4915666;29;20031;-81
2021/07/18 03:08:08;;;;;;;4.03;2.22;;;19.40;90.70;;;;;;4916280;29;20016;-81
2021/07/18 03:10:33;;;;;;;5.10;2.33;;;19.40;90.70;;;;;;4914304;29;20491;-81
2021/07/18 03:12:59;;;;;;;5.00;2.20;;;19.40;90.70;;;;;;4914886;29;20027;-81
2021/07/18 03:15:24;;;;;;;4.80;2.58;;;19.40;90.80;;;;;;4914311;29;20024;-78
2021/07/18 03:17:50;;;;;;;4.70;2.28;;;19.30;90.80;;;;;;4914883;29;20024;-81
2021/07/18 03:20:19;;;;;;;5.03;2.38;;;19.40;90.90;;;;;;4916114;29;20361;-82
2021/07/18 03:22:46;;;;;;;5.07;2.45;;;19.40;91.00;;;;;;4914139;29;20474;-81
2021/07/18 03:25:13;;;;;;;6.13;2.60;;;19.40;90.90;;;;;;4916128;29;20028;-81
2021/07/18 03:27:39;;;;;;;4.32;2.67;;;19.40;90.90;;;;;;4914208;29;20047;-81
2021/07/18 03:30:08;;;;;;;5.18;2.92;;;19.40;90.90;;;;;;4916069;29;20445;-81
2021/07/18 03:32:34;;;;;;;4.28;2.30;;;19.40;91.00;;;;;;4914088;29;20035;-81
2021/07/18 03:35:01;;;;;;;5.07;2.47;;;19.40;91.10;;;;;;4915513;29;20028;-81
2021/07/18 03:37:27;;;;;;;5.80;2.63;;;19.40;91.20;;;;;;4914189;29;20392;-80
2021/07/18 03:39:53;;;;;;;5.18;2.58;;;19.30;91.30;;;;;;4916971;29;20044;-81
2021/07/18 03:42:19;;;;;;;8.18;3.17;;;19.30;91.40;;;;;;4933517;29;20027;-81
2021/07/18 03:44:44;;;;;;;6.97;3.47;;;19.30;91.40;;;;;;4933950;29;20020;-81
2021/07/18 03:47:10;;;;;;;10.18;3.22;;;19.30;91.40;;;;;;4917728;29;20015;-81
2021/07/18 03:49:36;;;;;;;5.32;2.28;;;19.30;91.50;;;;;;4934178;29;20031;-81
2021/07/18 03:52:02;;;;;;;7.35;3.30;;;19.30;91.40;;;;;;4934714;29;20031;-81
2021/07/18 03:54:27;;;;;;;9.00;3.75;;;19.30;91.40;;;;;;4917020;29;20360;-80
2021/07/18 03:56:53;;;;;;;7.40;3.03;;;19.30;91.40;;;;;;4917477;29;20388;-81
2021/07/18 03:59:18;;;;;;;5.88;3.03;;;19.30;91.40;;;;;;4934642;29;20031;-81
2021/07/18 04:01:44;;;;;;;6.35;3.03;;;19.30;91.40;;;;;;4916961;29;20118;-81
2021/07/18 04:04:10;;;;;;;6.03;2.95;;;19.30;91.50;;;;;;4933253;29;20027;-81
2021/07/18 04:06:35;;;;;;;6.80;3.20;;;19.30;91.40;;;;;;4916905;29;20100;-81
2021/07/18 04:09:01;;;;;;;7.95;3.10;;;19.30;91.40;;;;;;4917581;29;20016;-81
2021/07/18 04:11:26;;;;;;;8.00;3.60;;;19.30;91.50;;;;;;4934824;29;20026;-81
2021/07/18 04:13:52;;;;;;;6.55;3.15;;;19.30;91.50;;;;;;4916745;29;20032;-81
2021/07/18 04:16:18;;;;;;;7.13;3.60;;;19.20;91.60;;;;;;4917459;29;20456;-81
2021/07/18 04:18:43;;;;;;;8.75;3.75;;;19.20;91.70;;;;;;4933874;29;20020;-81
2021/07/18 04:21:09;;;;;;;8.02;3.20;;;19.20;91.70;;;;;;4917282;29;20024;-81
2021/07/18 04:23:34;;;;;;;6.43;3.05;;;19.20;91.60;;;;;;4933938;29;20024;-81
2021/07/18 04:26:00;;;;;;;7.72;3.70;;;19.20;91.60;;;;;;4917418;29;20022;-81
2021/07/18 04:28:26;;;;;;;7.78;3.65;;;19.20;91.60;;;;;;4933045;29;20023;-81
2021/07/18 04:30:51;;;;;;;5.97;3.38;;;19.30;91.60;;;;;;4933826;29;20016;-82
2021/07/18 04:33:17;;;;;;;7.88;3.75;;;19.30;91.60;;;;;;4917243;29;20020;-81
2021/07/18 04:35:42;;;;;;;7.30;3.90;;;19.30;91.60;;;;;;4916619;29;20020;-81
2021/07/18 04:38:08;;;;;;;6.90;3.95;;;19.30;91.60;;;;;;4917188;29;20023;-81
2021/07/18 04:40:34;;;;;;;6.88;3.55;;;19.30;91.70;;;;;;4933489;29;20048;-81
2021/07/18 04:43:00;;;;;;;7.22;3.40;;;19.30;91.60;;;;;;4916668;29;20036;-82
2021/07/18 04:45:26;;;;;;;6.28;3.45;;;19.20;91.70;;;;;;4934472;29;20123;-81
2021/07/18 04:47:54;;;;;;;7.65;3.25;;;19.20;91.70;;;;;;4937024;29;20110;-81
2021/07/18 04:50:22;;;;;;;5.93;3.00;;;19.10;91.80;;;;;;4937743;29;20020;-81
2021/07/18 04:52:48;;;;;;;5.85;3.20;;;19.10;91.90;;;;;;4937085;29;20030;-81
2021/07/18 04:55:14;;;;;;;7.90;3.03;;;19.10;91.90;;;;;;4920571;29;20023;-81
2021/07/18 04:57:40;;;;;;;6.97;3.15;;;19.00;91.90;;;;;;4919642;29;20368;-81
2021/07/18 05:00:11;;;;;;;5.65;3.08;;;19.00;92.00;;;;;;4937612;29;20058;-81
2021/07/18 05:02:38;;;;;;;5.75;2.60;;;19.00;92.00;;;;;;4936858;29;20039;-83
2021/07/18 05:05:05;;;;;;;5.55;2.80;;;19.10;92.00;;;;;;4920328;29;20098;-83
2021/07/18 05:07:31;;;;;;;5.63;2.80;;;19.10;92.00;;;;;;4920396;29;20024;-81
2021/07/18 05:09:57;;;;;;;6.28;3.17;;;19.10;91.90;;;;;;4937227;29;20032;-81
2021/07/18 05:12:23;;;;;;;6.15;2.95;;;19.10;91.90;;;;;;4920195;29;20114;-81
2021/07/18 05:14:49;;;;;;;5.13;2.55;;;19.10;91.90;;;;;;4936756;29;20024;-81
2021/07/18 05:17:15;;;;;;;5.55;2.78;;;19.10;91.90;;;;;;4936178;29;20079;-81
2021/07/18 05:19:41;;;;;;;5.00;2.70;;;19.10;91.90;;;;;;4919675;29;20047;-81
2021/07/18 05:22:07;;;;;;;6.53;3.20;;;19.10;91.90;;;;;;4937226;29;20067;-81
2021/07/18 05:24:34;;;;;;;6.85;2.97;;;19.10;91.90;;;;;;4936739;29;20457;-77
2021/07/18 05:26:59;;;;;;;5.90;2.85;;;19.10;91.90;;;;;;4937130;29;20031;-81
2021/07/18 05:29:25;;;;;;;5.43;3.05;;;19.20;91.90;;;;;;4937003;29;20380;-81
2021/07/18 05:31:51;;;;;;;5.75;2.63;;;19.10;91.80;;;;;;4919254;29;20043;-81
2021/07/18 05:34:17;;;;;;;5.55;2.92;;;19.20;91.90;;;;;;4937341;29;20067;-81
2021/07/18 05:36:43;;;;;;;6.30;3.20;;;19.20;91.90;;;;;;4935063;29;20019;-81
2021/07/18 05:39:08;;;;;;;6.50;3.30;;;19.20;91.90;;;;;;4936874;29;20031;-81
2021/07/18 05:41:34;;;;;;;5.63;2.35;;;19.20;91.90;;;;;;4936129;29;20059;-79
2021/07/18 05:44:00;;;;;;;5.88;2.80;;;19.20;91.90;;;;;;4919684;29;20024;-81
2021/07/18 05:46:25;;;;;;;6.25;2.88;;;19.20;91.90;;;;;;4937169;29;20443;-81
2021/07/18 05:48:51;;;;;;;4.40;2.53;;;19.20;91.90;;;;;;4936114;29;20388;-80
2021/07/18 05:51:17;;;;;;;5.68;2.80;;;19.20;91.80;;;;;;4936727;29;20480;-81
2021/07/18 05:53:42;;;;;;;5.88;2.30;;;19.20;91.90;;;;;;4936330;29;20027;-81
2021/07/18 05:56:08;;;;;;;7.05;2.85;;;19.20;91.80;;;;;;4936498;29;20120;-81
2021/07/18 05:58:33;;;;;;;5.13;2.45;;;19.30;91.90;;;;;;4918571;29;20023;-81
2021/07/18 06:00:59;;;;;;;4.03;2.47;;;19.30;91.80;;;;;;4936109;29;20483;-81
2021/07/18 06:03:25;;;;;;;4.22;2.50;;;19.30;91.70;;;;;;4919188;29;20475;-81
2021/07/18 06:05:50;;;;;;;4.32;2.22;;;19.30;91.80;;;;;;4918700;29;20024;-81
2021/07/18 06:08:16;;;;;;;3.95;2.17;;;19.30;91.70;;;;;;4935018;29;20127;-81
2021/07/18 06:10:42;;;;;;;4.85;2.65;;;19.30;91.70;;;;;;4934328;29;20016;-81
2021/07/18 06:13:07;;;;;;;4.55;2.10;;;19.30;91.70;;;;;;4936216;29;20031;-81
2021/07/18 06:15:33;;;;;;;4.70;2.60;;;19.30;91.70;;;;;;4934851;29;20064;-82
2021/07/18 06:17:59;;;;;;;3.78;2.10;;;19.30;91.70;;;;;;4935473;29;20027;-82
2021/07/18 06:20:24;;;;;;;6.72;2.17;;;19.30;91.60;;;;;;4936189;29;20078;-81
2021/07/18 06:22:51;;;;;;;5.38;2.33;;;19.30;91.60;;;;;;4935303;29;20035;-81
2021/07/18 06:25:17;;;;;;;5.93;2.47;;;19.30;91.60;;;;;;4919003;29;20070;-82
2021/07/18 06:27:43;;;;;;;5.72;2.38;;;19.30;91.60;;;;;;4935644;29;20102;-81
2021/07/18 06:30:11;;;;;;;5.20;1.80;;;19.40;91.60;;;;;;4918962;29;20024;-81
2021/07/18 06:32:36;;;;;;;3.88;1.77;;;19.40;91.60;;;;;;4934429;29;20032;-82
2021/07/18 06:35:03;;;;;;;3.13;1.70;;;19.50;91.50;;;;;;4918116;29;20020;-81
2021/07/18 06:37:28;;;;;;;3.30;1.65;;;19.50;91.50;;;;;;4918699;29;20107;-82
2021/07/18 06:39:54;;;;;;;3.83;1.90;;;19.50;91.40;;;;;;4935136;29;20104;-82
2021/07/18 06:42:20;;;;;;;3.15;1.95;;;19.60;91.40;;;;;;4918126;29;20047;-82
2021/07/18 06:44:46;;;;;;;3.67;1.63;;;19.60;91.30;;;;;;4917931;29;20019;-81
2021/07/18 06:47:12;;;;;;;3.38;1.80;;;19.70;91.40;;;;;;4935288;29;20379;-81
2021/07/18 06:49:37;;;;;;;2.03;1.20;;;19.70;91.30;;;;;;4935565;29;20098;-82
2021/07/18 06:52:03;;;;;;;2.97;1.55;;;19.70;91.20;;;;;;4933625;29;20082;-82
2021/07/18 06:54:29;;;;;;;3.65;1.48;;;19.70;91.20;;;;;;4918334;29;20019;-82
2021/07/18 06:56:55;;;;;;;2.30;1.42;;;19.80;91.10;;;;;;4934775;29;20027;-82
2021/07/18 06:59:20;;;;;;;3.47;1.55;;;19.80;91.10;;;;;;4935341;29;20389;-82
2021/07/18 07:01:46;;;;;;;3.92;1.92;;;19.90;91.10;;;;;;4917019;29;20540;-81
2021/07/18 07:04:12;;;;;;;3.50;1.50;;;19.90;91.00;;;;;;4917173;29;20020;-81
2021/07/18 07:06:37;;;;;;;2.97;1.63;;;19.90;91.00;;;;;;4918249;29;20071;-81
2021/07/18 07:09:03;;;;;;;3.33;1.30;;;19.90;91.00;;;;;;4932980;29;20015;-81
2021/07/18 07:11:29;;;;;;;2.95;1.58;;;20.00;91.00;;;;;;4917955;29;20445;-81
2021/07/18 07:13:54;;;;;;;4.50;1.90;;;20.10;91.00;;;;;;4934534;29;20035;-81
2021/07/18 07:16:20;;;;;;;2.50;1.52;;;20.10;90.90;;;;;;4933755;29;20116;-81
2021/07/18 07:18:47;;;;;;;2.53;1.48;;;20.10;90.90;;;;;;4917330;29;20031;-81
2021/07/18 07:21:13;;;;;;;3.05;1.60;;;20.20;90.90;;;;;;4917578;29;20313;-81
2021/07/18 07:23:39;;;;;;;4.13;1.75;;;20.20;90.80;;;;;;4917836;29;20039;-81
2021/07/18 07:26:06;;;;;;;5.63;1.98;;;20.30;90.80;;;;;;4934098;29;20467;-81
2021/07/18 07:28:33;;;;;;;3.22;1.50;;;20.30;90.70;;;;;;4917568;29;20124;-81
2021/07/18 07:30:58;;;;;;;4.13;1.80;;;20.40;90.60;;;;;;4917033;29;20024;-81
2021/07/18 07:33:25;;;;;;;2.75;1.67;;;20.40;90.50;;;;;;4917695;29;20036;-81
2021/07/18 07:35:51;;;;;;;2.60;1.60;;;20.40;90.50;;;;;;4917067;29;20441;-81
2021/07/18 07:38:17;;;;;;;3.88;1.60;;;20.50;90.40;;;;;;4917697;29;20082;-81
2021/07/18 07:40:45;;;;;;;6.75;1.83;;;20.50;90.40;;;;;;4916724;29;20039;-80
2021/07/18 07:43:11;;;;;;;3.53;1.50;;;20.60;90.30;;;;;;4934732;29;20114;-81
2021/07/18 07:45:37;;;;;;;3.20;1.20;;;20.60;90.20;;;;;;4917871;29;20030;-81
2021/07/18 07:48:03;;;;;;;3.00;1.50;;;20.60;90.10;;;;;;4932796;29;20296;-81
2021/07/18 07:50:29;;;;;;;4.50;1.77;;;20.70;90.00;;;;;;4934764;29;20107;-81
2021/07/18 07:52:55;;;;;;;3.60;1.55;;;20.80;90.00;;;;;;4934075;29;20106;-81
2021/07/18 07:55:21;;;;;;;4.05;1.70;;;20.80;89.80;;;;;;4934744;29;20034;-81
2021/07/18 07:57:46;;;;;;;2.92;1.50;;;20.90;89.60;;;;;;4917004;29;20220;-81
2021/07/18 08:00:16;;;;;;;2.40;1.45;;;20.90;89.40;;;;;;4917535;29;20039;-81
2021/07/18 08:02:43;;;;;;;2.78;1.50;;;21.00;89.30;;;;;;4934638;29;20078;-81
2021/07/18 08:05:09;;;;;;;3.03;1.58;;;21.00;89.10;;;;;;4916877;29;20043;-81
2021/07/18 08:07:35;;;;;;;2.67;1.35;;;21.00;88.90;;;;;;4934739;29;20016;-81
2021/07/18 08:10:03;;;;;;;3.90;1.80;;;21.10;88.80;;;;;;4933844;29;20024;-81
2021/07/18 08:12:29;;;;;;;4.13;1.63;;;21.10;88.50;;;;;;4933299;29;20456;-81
2021/07/18 08:14:54;;;;;;;2.40;1.50;;;21.20;88.30;;;;;;4933525;29;20019;-80
2021/07/18 08:17:20;;;;;;;3.28;1.60;;;21.20;88.20;;;;;;4934166;29;20032;-81
2021/07/18 08:19:46;;;;;;;3.35;1.35;;;21.30;87.90;;;;;;4932297;29;20103;-78
2021/07/18 08:22:13;;;;;;;4.75;1.65;;;21.30;87.80;;;;;;4919563;29;20066;-81
2021/07/18 08:24:39;;;;;;;2.13;1.42;;;21.40;87.70;;;;;;4938134;29;20028;-81
2021/07/18 08:27:05;;;;;;;5.57;1.60;;;21.40;87.40;;;;;;4920373;29;20074;-81
2021/07/18 08:29:31;;;;;;;3.50;1.83;;;21.50;87.20;;;;;;4921014;29;20531;-81
2021/07/18 08:31:59;;;;;;;2.78;1.55;;;21.50;86.90;;;;;;4937404;29;20132;-81
2021/07/18 08:34:26;;;;;;;3.35;1.60;;;21.60;86.80;;;;;;4936520;29;20078;-81
2021/07/18 08:36:52;;;;;;;4.93;2.20;;;21.60;86.70;;;;;;4937100;29;20419;-81
2021/07/18 08:39:18;;;;;;;3.53;2.28;;;21.70;86.60;;;;;;4937863;29;20456;-81
2021/07/18 08:41:45;;;;;;;7.10;1.80;;;21.70;86.40;;;;;;4937809;29;20472;-81
2021/07/18 08:44:14;;;;;;;3.88;1.80;;;21.80;86.30;;;;;;4937085;29;20046;-81
2021/07/18 08:46:41;;;;;;;3.97;1.45;;;21.80;86.00;;;;;;4920496;29;20095;-81
2021/07/18 08:49:07;;;;;;;3.25;1.50;;;21.90;85.80;;;;;;4919912;29;20091;-81
2021/07/18 08:51:34;;;;;;;2.80;1.55;;;22.00;85.50;;;;;;4920465;29;20456;-82
2021/07/18 08:54:01;;;;;;;3.72;1.75;;;22.00;85.20;;;;;;4919891;29;20031;-81
2021/07/18 08:56:32;;;;;;;6.28;1.73;;;22.10;85.10;;;;;;4937433;29;20416;-82
2021/07/18 08:59:05;;;;;;;3.70;1.80;;;22.20;84.80;;;;;;4919832;29;20087;-81
2021/07/18 09:01:32;;;;;;;3.47;1.63;;;22.30;84.50;;;;;;4937488;29;20035;-81
2021/07/18 09:03:58;;;;;;;4.32;1.98;;;22.30;84.40;;;;;;4919699;29;20019;-81
2021/07/18 09:06:38;;;;;;;2.85;1.60;;;22.40;84.20;;;;;;4920328;29;20333;-82
2021/07/18 09:09:07;;;;;;;5.13;1.75;;;22.40;83.70;;;;;;4936840;29;20107;-81
2021/07/18 09:11:33;;;;;;;2.83;1.35;;;22.50;83.50;;;;;;4937353;29;20023;-81
2021/07/18 09:14:04;;;;;;;2.83;1.20;;;22.60;83.30;;;;;;4919393;29;20472;-81
2021/07/18 09:16:34;;;;;;;1.80;1.10;;;22.60;83.10;;;;;;4937180;29;20483;-81
2021/07/18 09:19:21;;;;;;;2.30;1.60;;;22.70;82.80;;;;;;4936320;29;20345;-80
2021/07/18 09:22:23;;;;;;;2.13;1.42;;;22.80;82.30;;;;;;4937025;29;20042;-81
2021/07/18 09:24:52;;;;;;;2.50;1.20;;;22.90;82.00;;;;;;4919635;29;20020;-81
2021/07/18 09:27:20;;;;;;;4.45;1.70;;;23.00;81.60;;;;;;4937218;29;20023;-81
2021/07/18 09:29:52;;;;;;;2.78;1.23;;;23.00;81.40;;;;;;4920081;29;20051;-81
2021/07/18 09:32:18;;;;;;;3.58;1.13;;;23.00;81.20;;;;;;4936074;29;20039;-81
2021/07/18 09:34:50;;;;;;;3.65;1.42;;;23.00;80.90;;;;;;4919508;29;20082;-81
2021/07/18 09:37:22;;;;;;;3.08;1.20;;;23.10;80.70;;;;;;4936835;29;20023;-81
2021/07/18 09:39:58;;;;;;;4.22;1.48;;;23.10;80.60;;;;;;4919578;29;20027;-81
2021/07/18 09:42:30;;;;;;;2.53;1.40;;;23.10;80.30;;;;;;4936631;29;20048;-80
2021/07/18 09:44:56;;;;;;;2.22;1.20;;;23.10;80.30;;;;;;4936171;29;20024;-80
2021/07/18 09:47:22;;;;;;;2.38;1.45;;;23.10;80.20;;;;;;4936722;29;20023;-81
2021/07/18 09:49:48;;;;;;;3.58;1.60;;;23.20;80.10;;;;;;4936652;29;20078;-81
2021/07/18 09:52:28;;;;;;;3.80;1.65;;;23.20;79.90;;;;;;4936093;29;20024;-81
2021/07/18 09:54:58;;;;;;;1.70;1.30;;;23.30;79.60;;;;;;4935997;29;20020;-80
2021/07/18 09:57:28;;;;;;;2.40;1.00;;;23.30;80.10;;;;;;4936645;29;20023;-81
2021/07/18 09:59:54;;;;;;;3.55;1.17;;;23.30;79.30;;;;;;4935488;29;20348;-80
2021/07/18 10:02:31;;;;;;;2.90;1.23;;;23.40;79.20;;;;;;4936249;29;20118;-80
2021/07/18 10:04:57;;;;;;;2.08;1.13;;;23.50;78.80;;;;;;4935435;29;20376;-80
2021/07/18 10:07:31;;;;;;;2.20;1.40;;;23.60;78.70;;;;;;4919012;29;20376;-81
2021/07/18 10:09:57;;;;;;;1.73;1.20;;;23.70;78.00;;;;;;4935517;29;20111;-80
2021/07/18 10:12:23;;;;;;;1.73;1.17;;;23.70;77.60;;;;;;4919336;29;20024;-81
2021/07/18 10:14:48;;;;;;;2.95;1.40;;;23.70;77.30;;;;;;4920223;29;20067;-81
2021/07/18 10:17:14;;;;;;;1.23;1.13;;;23.80;77.10;;;;;;4918300;29;20119;-80
2021/07/18 10:19:40;;;;;;;5.43;1.38;;;23.80;76.90;;;;;;4936058;29;20444;-81
2021/07/18 10:22:07;;;;;;;1.67;1.17;;;23.90;76.70;;;;;;4918251;29;20058;-81
2021/07/18 10:24:34;;;;;;;1.65;1.17;;;24.00;76.80;;;;;;4935879;29;20475;-81
2021/07/18 10:27:02;;;;;;;2.60;1.40;;;23.90;76.00;;;;;;4935303;29;20019;-80
2021/07/18 10:29:30;;;;;;;2.17;1.50;;;24.00;76.00;;;;;;4935787;29;20087;-81
2021/07/18 10:32:00;;;;;;;2.50;1.20;;;24.00;75.70;;;;;;4917975;29;20019;-81
2021/07/18 10:34:34;;;;;;;1.27;1.05;;;24.00;75.50;;;;;;4918684;29;20028;-81
2021/07/18 10:37:01;;;;;;;2.47;1.10;;;24.10;75.50;;;;;;4918041;29;20034;-81
2021/07/18 10:39:40;;;;;;;1.20;1.02;;;24.10;75.50;;;;;;4936881;29;20435;-81
2021/07/18 10:42:15;;;;;;;2.85;1.20;;;24.20;75.10;;;;;;4952413;28;20129;-81
2021/07/18 10:44:48;;;;;;;2.58;1.38;;;24.30;75.10;;;;;;4954436;28;20075;-81
2021/07/18 10:47:17;;;;;;;2.00;1.15;;;24.40;74.80;;;;;;4952814;29;20086;-81
2021/07/18 10:49:59;;;;;;;2.38;1.42;;;24.40;74.50;;;;;;4953579;28;20368;-81
2021/07/18 10:52:30;;;;;;;3.33;1.20;;;24.50;74.10;;;;;;4954769;28;20027;-81
2021/07/18 10:54:56;;;;;;;3.83;1.27;;;24.50;73.90;;;;;;4953020;29;20011;-79
2021/07/18 10:57:45;;;;;;;2.42;1.50;;;24.50;73.90;;;;;;4954559;28;20020;-81
2021/07/18 11:00:25;;;;;;;1.63;1.20;;;24.60;73.60;;;;;;4953972;29;20023;-81
2021/07/18 11:03:06;;;;;;;2.40;1.23;;;24.60;73.10;;;;;;4954519;28;20034;-81
2021/07/18 11:05:48;;;;;;;1.85;1.40;;;24.60;72.60;;;;;;4953207;29;20023;-80
2021/07/18 11:08:14;;;;;;;1.30;1.13;;;24.60;72.60;;;;;;4953508;28;20363;-83
2021/07/18 11:10:50;;;;;;;2.38;1.40;;;24.70;72.50;;;;;;4954542;28;20476;-80
2021/07/18 11:13:16;;;;;;;2.00;1.23;;;24.80;72.20;;;;;;4952351;29;20051;-80
2021/07/18 11:15:43;;;;;;;2.20;1.38;;;24.90;72.30;;;;;;4952668;29;20019;-80
2021/07/18 11:18:11;;;;;;;3.20;1.60;;;24.90;72.00;;;;;;4952301;28;20360;-80
2021/07/18 11:20:39;;;;;;;2.13;1.33;;;25.00;71.90;;;;;;4952849;29;20531;-80
2021/07/18 11:23:06;;;;;;;1.80;1.20;;;25.00;71.70;;;;;;4952245;29;20056;-80
2021/07/18 11:25:44;;;;;;;2.17;1.30;;;25.10;71.70;;;;;;4952627;28;20042;-80
2021/07/18 11:28:30;;;;;;;3.53;1.77;;;25.20;71.60;;;;;;4953290;28;20023;-80
2021/07/18 11:31:11;;;;;;;3.13;1.73;;;25.30;71.20;;;;;;4952695;29;20126;-80
2021/07/18 11:33:49;;;;;;;3.97;1.83;;;25.30;70.90;;;;;;4952857;29;20415;-80
2021/07/18 11:36:15;;;;;;;3.35;1.80;;;25.40;70.40;;;;;;4952033;29;20456;-80
2021/07/18 11:38:41;;;;;;;2.53;1.60;;;25.40;70.30;;;;;;4953688;29;20074;-80
2021/07/18 11:41:17;;;;;;;3.40;1.40;;;25.50;70.20;;;;;;4951790;28;20507;-80
2021/07/18 11:43:51;;;;;;;3.22;1.80;;;25.60;70.10;;;;;;4952724;29;20031;-80
2021/07/18 11:46:21;;;;;;;3.28;1.60;;;25.70;69.60;;;;;;4952096;29;20038;-80
2021/07/18 11:48:49;;;;;;;2.17;1.60;;;25.80;69.30;;;;;;4953665;28;20177;-81
2021/07/18 11:51:17;;;;;;;6.47;1.83;;;26.00;69.00;;;;;;4953009;28;20050;-81
2021/07/18 11:53:54;;;;;;;1.70;1.23;;;26.00;68.80;;;;;;4952566;29;20058;-81
2021/07/18 11:56:35;;;;;;;2.63;1.73;;;26.20;68.60;;;;;;4954514;28;20111;-80
2021/07/18 11:59:11;;;;;;;;;;;26.20;68.10;;;;;;4957797;28;20027;-78
2021/07/18 12:01:42;;;;;;;2.63;1.45;;;26.20;68.20;;;;;;4956154;29;19924;-80
2021/07/18 12:04:12;;;;;;;3.45;1.88;;;26.20;67.80;;;;;;4955858;29;20018;-81
2021/07/18 12:06:39;;;;;;;3.47;1.58;;;26.30;67.70;;;;;;4956580;29;20019;-81
2021/07/18 12:09:20;;;;;;;2.53;1.50;;;26.40;67.60;;;;;;4955770;29;20019;-82
2021/07/18 12:11:48;;;;;;;;;;;26.40;67.10;;;;;;4956668;29;20027;-82
2021/07/18 12:14:14;;;;;;;2.97;1.77;;;26.40;66.80;;;;;;4956846;28;19930;-81
2021/07/18 12:16:42;;;;;;;3.47;1.88;;;26.40;66.60;;;;;;4957470;28;20102;-81
2021/07/18 12:19:08;;;;;;;2.50;1.70;;;26.50;66.50;;;;;;4956893;28;20027;-80
2021/07/18 12:21:40;;;;;;;2.42;1.60;;;26.60;66.50;;;;;;4956087;28;20066;-81
2021/07/18 12:24:17;;;;;;;2.40;1.52;;;26.70;66.10;;;;;;4955640;29;20174;-80
2021/07/18 12:26:48;;;;;;;3.30;1.80;;;26.80;66.20;;;;;;4957259;29;20027;-81
2021/07/18 12:29:15;;;;;;;3.00;1.73;;;26.90;66.00;;;;;;4956706;29;20058;-81
2021/07/18 12:31:43;;;;;;;3.33;1.75;;;27.00;65.70;;;;;;4955910;29;20030;-81
2021/07/18 12:34:10;;;;;;;4.65;1.70;;;27.10;65.40;;;;;;4955130;28;20486;-81
2021/07/18 12:36:55;;;;;;;2.90;1.65;;;27.10;65.20;;;;;;4957156;28;20019;-80
2021/07/18 12:39:23;;;;;;;1.83;1.60;;;27.20;64.80;;;;;;4955216;28;20063;-81
2021/07/18 12:41:50;;;;;;;3.38;1.90;;;27.30;64.60;;;;;;4956850;28;20462;-80
2021/07/18 12:44:19;;;;;;;3.47;1.92;;;27.40;64.00;;;;;;4956546;28;20027;-80
2021/07/18 12:46:46;;;;;;;2.88;1.75;;;27.50;64.00;;;;;;4955678;28;20016;-81
2021/07/18 12:49:12;;;;;;;2.63;1.63;;;27.60;64.00;;;;;;4955051;28;20415;-80